createdAt,value
2018-10-16T00:00:17.161Z,85.51
2018-10-16T00:02:46.771Z,85.22
2018-10-16T00:05:17.225Z,85.85
2018-10-16T00:07:46.447Z,85.23
2018-10-16T00:10:21.169Z,85.49
2018-10-16T00:12:50.328Z,84.71
2018-10-16T00:15:19.925Z,85.19
2018-10-16T00:17:49.062Z,84.82
2018-10-16T00:20:18.527Z,85.37
2018-10-16T00:22:47.705Z,85.37
2018-10-16T00:25:18.208Z,85.50
2018-10-16T00:27:47.299Z,85.85
2018-10-16T00:30:16.789Z,86.49
2018-10-16T00:32:45.941Z,86.07
2018-10-16T00:35:15.347Z,86.81
2018-10-16T00:37:44.467Z,86.85
2018-10-16T00:40:13.601Z,87.09
2018-10-16T00:42:42.843Z,86.82
2018-10-16T00:45:12.516Z,86.68
2018-10-16T00:47:41.639Z,86.73
2018-10-16T00:50:11.099Z,87.58
2018-10-16T00:52:40.421Z,87.03
2018-10-16T00:55:10.650Z,87.22
2018-10-16T00:57:40.478Z,87.55
2018-10-16T01:00:11.250Z,86.98
2018-10-16T01:02:40.899Z,86.94
2018-10-16T01:05:11.519Z,88.10
2018-10-16T01:07:41.235Z,87.68
2018-10-16T01:10:11.635Z,87.73
2018-10-16T01:12:41.202Z,87.34
2018-10-16T01:15:11.555Z,87.00
2018-10-16T01:17:41.212Z,87.56
2018-10-16T01:20:13.488Z,87.28
2018-10-16T01:22:43.141Z,87.77
2018-10-16T01:25:13.262Z,87.61
2018-10-16T01:27:42.377Z,87.36
2018-10-16T01:30:11.889Z,88.07
2018-10-16T01:32:41.036Z,88.13
2018-10-16T01:35:11.715Z,87.91
2018-10-16T01:37:41.181Z,88.22
2018-10-16T01:40:11.443Z,87.71
2018-10-16T01:42:40.596Z,87.78
2018-10-16T01:45:10.839Z,87.08
2018-10-16T01:47:39.967Z,87.12
2018-10-16T01:50:09.509Z,88.30
2018-10-16T01:52:38.636Z,86.64
2018-10-16T01:55:08.171Z,87.72
2018-10-16T01:57:37.405Z,87.71
2018-10-16T02:00:07.501Z,87.36
2018-10-16T02:02:36.880Z,87.24
2018-10-16T02:05:07.703Z,87.35
2018-10-16T02:07:36.949Z,88.24
2018-10-16T02:10:06.881Z,88.28
2018-10-16T02:12:37.166Z,88.13
2018-10-16T02:15:08.120Z,87.73
2018-10-16T02:17:37.548Z,88.16
2018-10-16T02:20:06.902Z,88.16
2018-10-16T02:22:37.412Z,87.65
2018-10-16T02:25:06.832Z,88.32
2018-10-16T02:27:36.974Z,88.41
2018-10-16T02:30:06.979Z,87.83
2018-10-16T02:32:37.032Z,87.89
2018-10-16T02:35:08.176Z,88.65
2018-10-16T02:37:37.408Z,88.80
2018-10-16T02:40:08.321Z,88.23
2018-10-16T02:42:37.824Z,88.69
2018-10-16T02:45:08.292Z,88.86
2018-10-16T02:47:37.444Z,89.08
2018-10-16T02:50:06.755Z,88.48
2018-10-16T02:52:36.858Z,88.53
2018-10-16T02:55:08.594Z,89.31
2018-10-16T02:57:37.750Z,88.35
2018-10-16T03:00:06.930Z,88.44
2018-10-16T03:02:36.861Z,88.87
2018-10-16T03:05:07.087Z,88.44
2018-10-16T03:07:36.908Z,88.80
2018-10-16T03:10:06.981Z,88.54
2018-10-16T03:12:36.998Z,88.39
2018-10-16T03:15:10.439Z,89.44
2018-10-16T03:17:39.640Z,89.09
2018-10-16T03:20:09.756Z,88.99
2018-10-16T03:22:39.444Z,88.45
2018-10-16T03:25:10.794Z,88.62
2018-10-16T03:27:40.440Z,88.42
2018-10-16T03:30:11.506Z,88.65
2018-10-16T03:32:41.038Z,88.62
2018-10-16T03:35:11.714Z,88.92
2018-10-16T03:37:41.843Z,88.85
2018-10-16T03:40:12.072Z,89.28
2018-10-16T03:42:42.166Z,88.78
2018-10-16T03:45:12.699Z,88.52
2018-10-16T03:47:41.807Z,89.48
2018-10-16T03:50:11.303Z,89.13
2018-10-16T03:52:40.408Z,89.47
2018-10-16T03:55:09.876Z,89.37
2018-10-16T03:57:39.026Z,89.05
2018-10-16T04:00:09.228Z,89.40
2018-10-16T04:02:38.634Z,89.32
2018-10-16T04:05:08.089Z,90.27
2018-10-16T04:07:37.894Z,89.58
2018-10-16T04:10:08.374Z,89.48
2018-10-16T04:12:37.686Z,89.59
2018-10-16T04:15:09.050Z,89.46
2018-10-16T04:17:38.534Z,89.58
2018-10-16T04:20:08.193Z,89.16
2018-10-16T04:22:38.032Z,89.42
2018-10-16T04:25:08.505Z,89.60
2018-10-16T04:27:37.894Z,89.73
2018-10-16T04:30:08.395Z,89.50
2018-10-16T04:32:37.771Z,89.45
2018-10-16T04:35:12.170Z,89.12
2018-10-16T04:37:41.461Z,90.20
2018-10-16T04:40:10.940Z,89.56
2018-10-16T04:42:40.397Z,89.26
2018-10-16T04:45:10.827Z,89.24
2018-10-16T04:47:40.654Z,89.47
2018-10-16T04:50:10.999Z,90.25
2018-10-16T04:52:40.401Z,90.27
2018-10-16T04:55:10.028Z,90.69
2018-10-16T04:57:39.097Z,90.61
2018-10-16T05:00:09.437Z,90.83
2018-10-16T05:02:39.910Z,91.21
2018-10-16T05:05:13.465Z,91.35
2018-10-16T05:07:42.589Z,90.77
2018-10-16T05:10:12.379Z,90.49
2018-10-16T05:12:41.535Z,91.63
2018-10-16T05:15:15.644Z,91.36
2018-10-16T05:17:44.776Z,90.76
2018-10-16T05:20:13.957Z,90.09
2018-10-16T05:22:43.099Z,90.58
2018-10-16T05:25:12.264Z,92.17
2018-10-16T05:27:41.461Z,91.53
2018-10-16T05:30:10.979Z,91.34
2018-10-16T05:32:40.216Z,91.81
2018-10-16T05:35:10.148Z,91.15
2018-10-16T05:37:40.201Z,91.19
2018-10-16T05:40:10.251Z,90.99
2018-10-16T05:42:39.949Z,90.87
2018-10-16T05:45:11.002Z,91.54
2018-10-16T05:47:41.145Z,91.65
2018-10-16T05:50:10.989Z,91.20
2018-10-16T05:52:40.109Z,91.44
2018-10-16T05:55:10.018Z,91.83
2018-10-16T05:57:39.170Z,91.17
2018-10-16T06:00:19.803Z,91.18
2018-10-16T06:02:51.021Z,91.00
2018-10-16T06:05:20.109Z,91.19
2018-10-16T06:07:49.224Z,91.58
2018-10-16T06:10:18.709Z,91.83
2018-10-16T06:12:47.833Z,91.89
2018-10-16T06:15:17.378Z,92.43
2018-10-16T06:17:46.543Z,91.90
2018-10-16T06:20:15.673Z,92.31
2018-10-16T06:22:45.322Z,92.82
2018-10-16T06:25:14.456Z,92.81
2018-10-16T06:27:44.077Z,92.05
2018-10-16T06:30:13.722Z,92.27
2018-10-16T06:32:42.826Z,92.69
2018-10-16T06:35:12.337Z,92.53
2018-10-16T06:37:41.539Z,92.76
2018-10-16T06:40:11.352Z,92.84
2018-10-16T06:42:40.542Z,92.09
2018-10-16T06:45:10.685Z,91.66
2018-10-16T06:47:39.799Z,91.50
2018-10-16T06:50:10.622Z,91.62
2018-10-16T06:52:39.920Z,92.14
2018-10-16T06:55:09.779Z,92.47
2018-10-16T06:57:39.324Z,92.41
2018-10-16T07:00:09.864Z,92.50
2018-10-16T07:02:39.346Z,92.57
2018-10-16T07:05:09.880Z,93.25
2018-10-16T07:07:39.547Z,93.19
2018-10-16T07:10:10.387Z,93.63
2018-10-16T07:12:39.594Z,93.27
2018-10-16T07:15:10.188Z,92.85
2018-10-16T07:17:39.496Z,92.96
2018-10-16T07:20:10.314Z,93.37
2018-10-16T07:22:40.055Z,93.08
2018-10-16T07:25:10.504Z,93.05
2018-10-16T07:27:40.110Z,93.85
2018-10-16T07:30:12.484Z,93.41
2018-10-16T07:32:41.671Z,93.87
2018-10-16T07:35:11.312Z,94.55
2018-10-16T07:37:40.940Z,94.02
2018-10-16T07:40:11.301Z,94.25
2018-10-16T07:42:40.900Z,93.99
2018-10-16T07:48:10.261Z,93.97
2018-10-16T07:50:40.003Z,93.94
2018-10-16T07:53:10.348Z,93.50
2018-10-16T07:55:40.410Z,93.68
2018-10-16T07:58:10.335Z,93.81
2018-10-16T08:00:40.096Z,93.94
2018-10-16T08:03:10.449Z,93.66
2018-10-16T08:05:40.834Z,93.31
2018-10-16T08:08:10.989Z,93.50
2018-10-16T08:10:40.312Z,93.35
2018-10-16T08:13:10.628Z,93.02
2018-10-16T08:15:40.649Z,93.20
2018-10-16T08:18:10.559Z,92.53
2018-10-16T08:20:40.230Z,91.96
2018-10-16T08:23:10.607Z,91.86
2018-10-16T08:25:40.687Z,91.31
2018-10-16T08:28:10.672Z,91.02
2018-10-16T08:30:40.485Z,90.69
2018-10-16T08:33:10.641Z,89.83
2018-10-16T08:35:40.887Z,90.16
2018-10-16T08:38:24.632Z,90.07
2018-10-16T08:40:53.866Z,89.40
2018-10-16T08:43:37.726Z,89.42
2018-10-16T08:46:17.982Z,88.19
2018-10-16T08:48:58.883Z,88.11
2018-10-16T08:51:54.800Z,88.06
2018-10-16T08:54:24.252Z,87.39
2018-10-16T08:56:53.379Z,86.09
2018-10-16T08:59:22.514Z,85.57
2018-10-16T09:01:51.700Z,84.02
2018-10-16T09:04:21.230Z,82.39
2018-10-16T09:06:50.400Z,82.66
2018-10-16T09:09:19.939Z,82.48
2018-10-16T09:11:49.604Z,82.28
2018-10-16T09:14:19.218Z,83.16
2018-10-16T09:16:48.320Z,82.80
2018-10-16T09:19:17.862Z,82.09
2018-10-16T09:21:47.061Z,81.94
2018-10-16T09:24:16.186Z,81.79
2018-10-16T09:26:45.302Z,80.52
2018-10-16T09:29:14.827Z,80.69
2018-10-16T09:31:43.951Z,79.00
2018-10-16T09:34:14.035Z,78.63
2018-10-16T09:36:43.168Z,78.76
2018-10-16T09:39:12.631Z,79.17
2018-10-16T09:41:41.824Z,78.52
2018-10-16T09:44:11.521Z,78.10
2018-10-16T09:46:41.531Z,76.99
2018-10-16T09:49:11.580Z,77.63
2018-10-16T09:51:41.512Z,76.03
2018-10-16T09:54:11.547Z,76.60
2018-10-16T09:56:41.655Z,76.40
2018-10-16T09:59:11.565Z,75.51
2018-10-16T10:01:43.826Z,75.79
2018-10-16T10:04:13.476Z,75.29
2018-10-16T10:06:42.660Z,75.41
2018-10-16T10:09:13.200Z,75.84
2018-10-16T10:11:42.375Z,75.32
2018-10-16T10:14:11.873Z,75.15
2018-10-16T10:16:42.016Z,75.31
2018-10-16T10:19:11.843Z,75.55
2018-10-16T10:21:41.605Z,75.42
2018-10-16T10:24:11.675Z,74.84
2018-10-16T10:42:11.202Z,71.52
2018-10-16T10:44:40.259Z,71.55
2018-10-16T10:47:09.416Z,71.96
2018-10-16T10:49:38.879Z,71.41
2018-10-16T10:52:08.025Z,71.13
2018-10-16T10:54:37.160Z,70.91
2018-10-16T10:57:06.871Z,69.24
2018-10-16T10:59:36.125Z,68.92
2018-10-16T11:02:05.647Z,68.81
2018-10-16T11:04:35.207Z,69.23
2018-10-16T11:07:04.355Z,67.23
2018-10-16T11:09:33.846Z,67.37
2018-10-16T11:12:03.017Z,67.01
2018-10-16T11:14:32.109Z,68.23
2018-10-16T11:17:01.303Z,65.43
2018-10-16T11:19:30.861Z,66.04
2018-10-16T11:21:59.947Z,65.86
2018-10-16T11:24:29.478Z,65.79
2018-10-16T11:26:58.725Z,64.36
2018-10-16T11:29:28.243Z,62.49
2018-10-16T11:31:57.422Z,61.15
2018-10-16T11:34:26.952Z,61.59
2018-10-16T11:36:56.099Z,59.35
2018-10-16T11:39:25.525Z,61.70
2018-10-16T11:41:54.610Z,61.49
2018-10-16T11:44:23.791Z,60.91
2018-10-16T11:46:52.880Z,61.77
2018-10-16T11:49:22.406Z,60.12
2018-10-16T11:51:51.523Z,61.14
2018-10-16T11:54:20.976Z,59.95
2018-10-16T11:56:50.144Z,59.67
2018-10-16T11:59:19.850Z,59.34
2018-10-16T12:01:48.817Z,59.63
2018-10-16T12:04:18.387Z,61.87
2018-10-16T12:06:47.507Z,59.10
2018-10-16T12:09:17.033Z,60.20
2018-10-16T12:11:46.277Z,58.91
2018-10-16T12:14:15.709Z,59.10
2018-10-16T12:16:56.889Z,58.68
2018-10-16T12:19:30.680Z,61.00
2018-10-16T12:22:00.364Z,61.21
2018-10-16T12:24:30.501Z,60.11
2018-10-16T12:26:59.982Z,57.91
2018-10-16T12:29:29.841Z,59.12
2018-10-16T12:31:59.513Z,58.08
2018-10-16T12:34:28.628Z,57.82
2018-10-16T12:36:57.816Z,58.26
2018-10-16T12:39:26.909Z,57.50
2018-10-16T12:41:56.083Z,53.71
2018-10-16T12:44:25.327Z,56.17
2018-10-16T12:46:54.510Z,55.60
2018-10-16T12:49:24.034Z,56.55
2018-10-16T12:51:53.200Z,56.79
2018-10-16T12:54:22.755Z,54.66
2018-10-16T12:56:52.047Z,55.18
2018-10-16T12:59:21.535Z,54.73
2018-10-16T13:01:50.660Z,56.17
2018-10-16T13:04:20.174Z,55.63
2018-10-16T13:06:49.413Z,55.11
2018-10-16T13:09:18.521Z,56.09
2018-10-16T13:11:47.652Z,55.43
2018-10-16T13:14:17.302Z,55.42
2018-10-16T13:16:46.497Z,55.77
2018-10-16T13:19:15.869Z,55.54
2018-10-16T13:21:44.974Z,56.67
2018-10-16T13:24:14.509Z,56.91
2018-10-16T13:26:44.210Z,55.32
2018-10-16T13:29:14.139Z,54.22
2018-10-16T13:31:44.138Z,54.66
2018-10-16T13:34:14.195Z,55.05
2018-10-16T13:52:10.135Z,54.76
2018-10-16T13:54:39.321Z,55.33
2018-10-16T13:57:08.424Z,55.97
2018-10-16T13:59:37.552Z,55.34
2018-10-16T14:02:06.806Z,55.97
2018-10-16T14:04:36.197Z,56.25
2018-10-16T14:07:05.542Z,56.14
2018-10-16T14:09:35.150Z,53.92
2018-10-16T14:12:04.305Z,54.15
2018-10-16T14:14:33.813Z,54.99
2018-10-16T14:17:02.933Z,55.35
2018-10-16T14:19:32.407Z,54.10
2018-10-16T14:22:01.779Z,53.80
2018-10-16T14:24:31.203Z,52.42
2018-10-16T14:27:00.371Z,52.82
2018-10-16T14:29:29.922Z,52.03
2018-10-16T14:31:59.158Z,52.65
2018-10-16T14:34:28.358Z,51.68
2018-10-16T14:36:57.436Z,50.33
2018-10-16T14:39:26.578Z,50.21
2018-10-16T14:41:55.723Z,50.70
2018-10-16T14:44:24.900Z,50.25
2018-10-16T14:46:54.009Z,50.91
2018-10-16T14:49:23.185Z,50.00
2018-10-16T14:51:52.319Z,48.19
2018-10-16T14:54:21.419Z,49.57
2018-10-16T14:56:50.595Z,47.38
2018-10-16T14:59:19.771Z,48.38
2018-10-16T15:01:48.933Z,48.37
2018-10-16T15:04:18.763Z,49.38
2018-10-16T15:06:47.872Z,50.19
2018-10-16T15:09:17.010Z,50.17
2018-10-16T15:11:46.162Z,50.31
2018-10-16T15:14:15.332Z,50.41
2018-10-16T15:16:44.773Z,50.10
2018-10-16T15:19:14.988Z,50.95
2018-10-16T15:21:44.809Z,51.80
2018-10-16T15:24:15.025Z,51.88
2018-10-16T15:26:44.822Z,52.66
2018-10-16T15:29:15.082Z,52.69
2018-10-16T15:31:45.036Z,53.65
2018-10-16T15:34:15.126Z,54.27
2018-10-16T15:36:45.163Z,54.35
2018-10-16T15:39:15.339Z,54.83
2018-10-16T15:41:45.373Z,55.78
2018-10-16T15:44:15.411Z,56.34
2018-10-16T15:46:45.386Z,57.04
2018-10-16T15:49:15.373Z,57.11
2018-10-16T15:51:45.202Z,57.52
2018-10-16T15:54:15.455Z,56.86
2018-10-16T15:56:45.590Z,57.30
2018-10-16T15:59:15.254Z,57.66
2018-10-16T16:01:45.260Z,58.52
2018-10-16T16:04:15.565Z,58.52
2018-10-16T16:06:45.298Z,58.88
2018-10-16T16:09:15.476Z,58.92
2018-10-16T16:11:45.378Z,59.39
2018-10-16T16:14:15.652Z,60.86
2018-10-16T16:16:45.413Z,61.14
2018-10-16T16:19:15.704Z,61.44
2018-10-16T16:21:45.410Z,61.63
2018-10-16T16:24:15.776Z,62.22
2018-10-16T16:26:45.479Z,62.03
2018-10-16T16:29:15.700Z,62.78
2018-10-16T16:31:45.609Z,62.63
2018-10-16T16:34:15.903Z,63.89
2018-10-16T16:36:45.654Z,65.69
2018-10-16T16:39:15.852Z,65.87
2018-10-16T16:41:45.582Z,66.29
2018-10-16T16:44:15.987Z,66.29
2018-10-16T16:46:45.656Z,66.23
2018-10-16T16:49:16.176Z,66.79
2018-10-16T16:51:45.856Z,66.81
2018-10-16T16:54:16.111Z,67.09
2018-10-16T16:56:45.838Z,67.15
2018-10-16T16:59:16.016Z,67.59
2018-10-16T17:01:45.887Z,68.21
2018-10-16T17:04:16.099Z,68.66
2018-10-16T17:06:46.157Z,68.33
2018-10-16T17:09:18.074Z,68.98
2018-10-16T17:11:47.393Z,69.42
2018-10-16T17:14:16.537Z,70.04
2018-10-16T17:29:50.110Z,72.80
2018-10-16T17:32:19.318Z,73.35
2018-10-16T17:34:48.449Z,73.23
2018-10-16T17:37:17.951Z,74.22
2018-10-16T17:39:47.223Z,74.09
2018-10-16T17:42:16.574Z,74.95
2018-10-16T17:44:46.357Z,75.42
2018-10-16T17:47:16.876Z,75.21
2018-10-16T17:49:46.537Z,76.06
2018-10-16T17:52:16.864Z,75.62
2018-10-16T17:54:46.708Z,76.21
2018-10-16T17:57:16.952Z,76.97
2018-10-16T17:59:46.822Z,76.81
2018-10-16T18:02:17.035Z,76.95
2018-10-16T18:04:47.156Z,77.78
2018-10-16T18:07:17.299Z,77.44
2018-10-16T18:09:46.883Z,77.71
2018-10-16T18:12:17.118Z,78.22
2018-10-16T18:14:46.865Z,78.05
2018-10-16T18:17:17.292Z,78.69
2018-10-16T18:19:47.027Z,78.38
2018-10-16T18:22:17.956Z,78.97
2018-10-16T18:24:47.702Z,79.08
2018-10-16T18:27:17.474Z,78.99
2018-10-16T18:29:47.230Z,79.18
2018-10-16T18:32:18.778Z,79.50
2018-10-16T18:34:48.364Z,80.09
2018-10-16T18:37:17.896Z,79.93
2018-10-16T18:39:47.618Z,80.08
2018-10-16T18:42:18.089Z,80.39
2018-10-16T18:44:47.594Z,80.68
2018-10-16T18:47:17.988Z,81.12
2018-10-16T18:49:47.516Z,80.92
2018-10-16T18:52:18.855Z,81.29
2018-10-16T18:54:48.416Z,81.59
2018-10-16T18:57:18.029Z,81.67
2018-10-16T18:59:48.089Z,81.82
2018-10-16T19:02:18.490Z,82.53
2018-10-16T19:04:48.154Z,82.41
2018-10-16T19:07:18.147Z,82.47
2018-10-16T19:09:48.387Z,82.44
2018-10-16T19:12:18.018Z,82.87
2018-10-16T19:14:47.907Z,82.91
2018-10-16T19:17:19.024Z,83.42
2018-10-16T19:19:48.544Z,83.54
2018-10-16T19:22:18.177Z,84.00
2018-10-16T19:24:48.068Z,83.86
2018-10-16T19:27:18.434Z,84.35
2018-10-16T19:29:48.040Z,84.22
2018-10-16T19:32:18.536Z,84.86
2018-10-16T19:34:48.750Z,84.82
2018-10-16T19:37:18.762Z,84.97
2018-10-16T19:39:48.530Z,85.24
2018-10-16T19:42:19.704Z,85.04
2018-10-16T19:44:49.684Z,85.16
2018-10-16T19:47:19.215Z,85.29
2018-10-16T19:49:49.025Z,85.62
2018-10-16T19:52:18.688Z,85.49
2018-10-16T19:54:48.530Z,85.66
2018-10-16T19:57:18.537Z,85.76
2018-10-16T19:59:48.379Z,85.59
2018-10-16T20:02:20.079Z,85.87
2018-10-16T20:04:49.647Z,85.65
2018-10-16T20:07:19.080Z,86.04
2018-10-16T20:09:48.628Z,86.29
2018-10-16T20:12:18.791Z,85.67
2018-10-16T20:14:48.399Z,85.77
2018-10-16T20:17:18.723Z,86.11
2018-10-16T20:19:48.330Z,86.30
2018-10-16T20:22:17.962Z,86.54
2018-10-16T20:24:47.404Z,86.91
2018-10-16T20:27:17.212Z,86.65
2018-10-16T20:29:46.425Z,86.55
2018-10-16T20:32:15.889Z,87.03
2018-10-16T20:34:45.065Z,86.79
2018-10-16T20:37:15.356Z,86.88
2018-10-16T20:39:44.554Z,86.88
2018-10-16T20:42:14.136Z,86.96
2018-10-16T20:44:43.424Z,87.34
2018-10-16T20:47:13.534Z,87.49
2018-10-16T20:49:42.785Z,87.47
2018-10-16T20:52:12.051Z,87.55
2018-10-16T20:54:41.971Z,87.30
2018-10-16T20:57:11.488Z,87.48
2018-10-16T20:59:42.345Z,87.01
2018-10-16T21:02:11.785Z,87.01
2018-10-16T21:04:41.208Z,86.87
2018-10-16T21:07:10.323Z,87.25
2018-10-16T21:09:39.529Z,87.20
2018-10-16T21:12:09.062Z,86.91
2018-10-16T21:14:38.305Z,86.46
2018-10-16T21:17:07.520Z,86.95
2018-10-16T21:19:38.288Z,86.57
2018-10-16T21:22:07.392Z,87.04
2018-10-16T21:24:51.417Z,87.15
2018-10-16T21:27:20.811Z,86.94
2018-10-16T21:29:51.276Z,87.06
2018-10-16T21:32:21.640Z,86.94
2018-10-16T21:34:50.951Z,86.73
2018-10-16T21:37:20.232Z,86.92
2018-10-16T21:39:49.802Z,87.34
2018-10-16T22:08:24.932Z,88.29
2018-10-16T22:10:54.577Z,88.04
2018-10-16T22:13:24.301Z,87.70
2018-10-16T22:15:53.526Z,88.20
2018-10-16T22:20:59.987Z,88.48
2018-10-16T22:23:29.153Z,88.80
2018-10-16T22:25:58.336Z,89.01
2018-10-16T22:28:27.801Z,88.21
2018-10-16T22:30:57.043Z,89.04
2018-10-16T22:33:26.118Z,88.78
2018-10-16T22:35:55.293Z,89.05
2018-10-16T22:38:24.571Z,89.47
2018-10-16T22:40:53.976Z,88.86
2018-10-16T22:43:23.102Z,89.26
2018-10-16T22:45:53.236Z,88.97
2018-10-16T22:48:22.385Z,88.60
2018-10-16T22:50:52.033Z,88.45
2018-10-16T22:53:22.613Z,88.56
2018-10-16T22:55:51.746Z,88.61
2018-10-16T22:58:22.572Z,88.87
2018-10-16T23:00:51.740Z,89.07
2018-10-16T23:03:20.892Z,89.51
2018-10-16T23:05:50.564Z,89.33
2018-10-16T23:23:49.851Z,89.18
2018-10-16T23:26:19.330Z,89.11
2018-10-16T23:28:49.169Z,89.33
2018-10-16T23:31:18.642Z,89.74
2018-10-16T23:33:48.675Z,89.53
2018-10-16T23:36:18.591Z,89.05
2018-10-16T23:38:48.695Z,88.98
2018-10-16T23:41:19.415Z,89.35
2018-10-16T23:43:48.617Z,88.96
2018-10-16T23:46:18.916Z,88.75
2018-10-16T23:48:48.063Z,89.47
2018-10-16T23:51:17.602Z,88.90
2018-10-16T23:53:46.809Z,88.87
2018-10-16T23:56:16.166Z,89.12
2018-10-16T23:58:45.226Z,89.37
